createdAt,value
2023-05-18T00:09:48.762Z,5.5
2023-05-18T00:19:51.339Z,5.5
2023-05-18T00:29:53.875Z,5.1
2023-05-18T00:39:55.596Z,5.1
2023-05-18T00:49:57.553Z,5.1
2023-05-18T01:00:00.222Z,5
2023-05-18T01:10:02.353Z,4.9
2023-05-18T01:20:04.981Z,4.8
2023-05-18T01:30:07.004Z,4.6
2023-05-18T01:40:09.217Z,4.5
2023-05-18T01:50:10.917Z,4.4
2023-05-18T02:00:12.982Z,4.3
2023-05-18T02:10:15.250Z,4.2
2023-05-18T02:20:17.755Z,4.1
2023-05-18T02:30:19.982Z,3.9
2023-05-18T02:40:22.196Z,3.7
2023-05-18T03:00:26.536Z,3.9
2023-05-18T03:10:29.118Z,3.7
2023-05-18T03:20:31.112Z,3.6
2023-05-18T03:30:33.619Z,3.5
2023-05-18T03:40:35.540Z,3.5
2023-05-18T03:50:37.340Z,3.6
2023-05-18T04:00:39.289Z,3.5
2023-05-18T04:10:41.292Z,3.5
2023-05-18T04:20:43.180Z,3.8
2023-05-18T04:30:45.691Z,4.1
2023-05-18T04:40:48.206Z,4.6
2023-05-18T04:50:50.740Z,5.1
2023-05-18T05:00:53.080Z,5.4
2023-05-18T05:10:54.825Z,6.3
2023-05-18T05:20:57.030Z,7.1
2023-05-18T05:30:59.528Z,7.4
2023-05-18T05:41:01.450Z,7.3
2023-05-18T05:51:03.881Z,7.5
2023-05-18T06:01:06.429Z,7.6
2023-05-18T06:11:11.337Z,7.5
2023-05-18T06:21:10.961Z,8.6
2023-05-18T06:31:12.985Z,8.8
2023-05-18T06:41:15.101Z,8.6
2023-05-18T06:51:17.693Z,9.1
2023-05-18T07:01:20.174Z,9.4
2023-05-18T07:11:21.947Z,9.8
2023-05-18T07:21:23.899Z,10.2
2023-05-18T07:31:26.395Z,11.1
2023-05-18T07:41:28.502Z,10.7
2023-05-18T07:51:31.082Z,11.6
2023-05-18T08:01:33.111Z,12.3
2023-05-18T08:11:34.898Z,12.4
2023-05-18T08:21:37.352Z,11.7
2023-05-18T08:31:39.942Z,12.2
2023-05-18T08:41:42.111Z,13.4
2023-05-18T08:51:44.269Z,11.6
2023-05-18T09:01:46.439Z,12.4
2023-05-18T09:11:48.819Z,12.2
2023-05-18T09:21:50.706Z,13.2
2023-05-18T09:31:52.789Z,12.7
2023-05-18T09:41:55.086Z,14.1
2023-05-18T09:51:57.132Z,12.9
2023-05-18T10:01:59.663Z,13.8
2023-05-18T10:12:01.337Z,14.1
2023-05-18T10:22:03.184Z,12.9
2023-05-18T10:32:06.989Z,13.2
2023-05-18T10:42:06.541Z,13.8
2023-05-18T10:52:08.228Z,13.7
2023-05-18T11:02:10.890Z,13.9
2023-05-18T11:12:13.045Z,14.5
2023-05-18T11:22:15.300Z,13.8
2023-05-18T11:32:22.572Z,13.2
2023-05-18T11:42:19.110Z,13.8
2023-05-18T11:52:21.295Z,13.6
2023-05-18T12:02:23.002Z,13.9
2023-05-18T12:12:24.933Z,14.4
2023-05-18T12:22:26.690Z,15
2023-05-18T12:32:28.899Z,15.1
2023-05-18T12:42:31.226Z,14.8
2023-05-18T12:52:33.784Z,15.1
2023-05-18T13:02:36.467Z,15.5
2023-05-18T13:12:38.476Z,16.4
2023-05-18T13:22:40.273Z,15.2
2023-05-18T13:32:42.834Z,16.2
2023-05-18T13:42:45.290Z,15.6
2023-05-18T13:52:47.745Z,15.1
2023-05-18T14:02:49.585Z,15.5
2023-05-18T14:12:51.844Z,16.1
2023-05-18T14:22:54.373Z,15.3
2023-05-18T14:32:56.435Z,15.8
2023-05-18T14:42:58.726Z,16.1
2023-05-18T14:53:01.297Z,15.4
2023-05-18T15:03:03.112Z,16
2023-05-18T15:13:05.416Z,15.6
2023-05-18T15:23:07.980Z,15.8
2023-05-18T15:33:09.991Z,15.4
2023-05-18T15:43:11.595Z,15.7
2023-05-18T15:53:13.407Z,16.3
2023-05-18T16:03:15.287Z,15.7
2023-05-18T16:13:17.623Z,15.6
2023-05-18T16:23:19.669Z,15.4
2023-05-18T16:33:21.512Z,15.2
2023-05-18T16:43:23.879Z,15.4
2023-05-18T16:53:25.773Z,15.3
2023-05-18T17:03:27.697Z,15.1
2023-05-18T17:13:30.102Z,15
2023-05-18T17:23:32.241Z,14.8
2023-05-18T17:33:34.708Z,14.8
2023-05-18T17:43:36.874Z,14.7
2023-05-18T17:53:39.100Z,14.6
2023-05-18T18:03:41.475Z,14.4
2023-05-18T18:13:43.348Z,14.2
2023-05-18T18:33:47.898Z,13.8
2023-05-18T18:43:50.104Z,13.7
2023-05-18T18:53:52.311Z,13.3
2023-05-18T19:03:54.239Z,13.2
2023-05-18T19:13:56.774Z,12.9
2023-05-18T19:23:58.531Z,12.6
2023-05-18T19:34:00.819Z,12.3
2023-05-18T19:44:02.458Z,12.1
2023-05-18T19:54:04.941Z,11.9
2023-05-18T20:04:07.181Z,11.6
2023-05-18T20:24:11.038Z,11
2023-05-18T20:34:12.712Z,11.1
2023-05-18T20:44:14.765Z,10.7
2023-05-18T20:54:17.402Z,10.6
2023-05-18T21:04:19.917Z,10.6
2023-05-18T21:14:22.377Z,10.6
2023-05-18T21:24:24.342Z,10.5
2023-05-18T21:34:26.316Z,10
2023-05-18T21:44:28.560Z,10.1
2023-05-18T21:54:32.856Z,10
2023-05-18T22:04:33.141Z,9.8
2023-05-18T22:14:34.960Z,10
2023-05-18T22:24:36.627Z,9.6
2023-05-18T22:34:38.422Z,9.3
2023-05-18T22:35:00.347Z,9.3
2023-05-18T22:44:47.606Z,9.4
2023-05-18T22:54:49.506Z,9
2023-05-18T23:04:51.945Z,8.7
2023-05-18T23:14:53.724Z,8.6
2023-05-18T23:24:56.336Z,8.5
2023-05-18T23:45:00.332Z,7.7
2023-05-18T23:55:01.969Z,7.4
